sensor_id;sensor_type;location;lat;lon;timestamp;pressure;altitude;pressure_sealevel;temperature;humidity
80509;BME280;69838;52.602;13.434;2023-05-15T00:00:35;100771.94;;;6.50;90.30
80509;BME280;69838;52.602;13.434;2023-05-15T00:01:21;100786.94;;;6.56;90.36
80509;BME280;69838;52.602;13.434;2023-05-15T00:02:07;100781.50;;;6.59;90.65
80509;BME280;69838;52.602;13.434;2023-05-15T00:02:52;100779.06;;;6.52;90.29
80509;BME280;69838;52.602;13.434;2023-05-15T00:03:37;100784.28;;;6.56;90.35
80509;BME280;69838;52.602;13.434;2023-05-15T00:04:23;100756.84;;;6.48;90.53
80509;BME280;69838;52.602;13.434;2023-05-15T00:05:08;100779.72;;;6.58;90.56
80509;BME280;69838;52.602;13.434;2023-05-15T00:05:53;100781.41;;;6.62;90.34
80509;BME280;69838;52.602;13.434;2023-05-15T00:06:38;100775.94;;;6.65;90.39
80509;BME280;69838;52.602;13.434;2023-05-15T00:07:24;100769.66;;;6.66;90.49
80509;BME280;69838;52.602;13.434;2023-05-15T00:08:09;100782.19;;;6.66;90.29
80509;BME280;69838;52.602;13.434;2023-05-15T00:08:54;100762.75;;;6.58;90.18
80509;BME280;69838;52.602;13.434;2023-05-15T00:09:40;100771.34;;;6.69;90.54
80509;BME280;69838;52.602;13.434;2023-05-15T00:10:25;100765.19;;;6.65;90.38
80509;BME280;69838;52.602;13.434;2023-05-15T00:11:11;100767.00;;;6.65;90.18
80509;BME280;69838;52.602;13.434;2023-05-15T00:11:56;100761.78;;;6.60;90.16
80509;BME280;69838;52.602;13.434;2023-05-15T00:12:41;100751.25;;;6.54;90.30
80509;BME280;69838;52.602;13.434;2023-05-15T00:13:27;100769.56;;;6.69;90.00
80509;BME280;69838;52.602;13.434;2023-05-15T00:14:12;100763.47;;;6.64;90.32
80509;BME280;69838;52.602;13.434;2023-05-15T00:14:57;100767.91;;;6.64;90.46
80509;BME280;69838;52.602;13.434;2023-05-15T00:15:42;100745.03;;;6.54;90.34
80509;BME280;69838;52.602;13.434;2023-05-15T00:16:28;100760.78;;;6.64;90.49
80509;BME280;69838;52.602;13.434;2023-05-15T00:17:13;100758.97;;;6.65;90.26
80509;BME280;69838;52.602;13.434;2023-05-15T00:17:58;100756.53;;;6.57;89.67
80509;BME280;69838;52.602;13.434;2023-05-15T00:18:43;100757.31;;;6.61;90.03
80509;BME280;69838;52.602;13.434;2023-05-15T00:19:29;100759.88;;;6.64;90.24
80509;BME280;69838;52.602;13.434;2023-05-15T00:20:14;100748.38;;;6.60;90.28
80509;BME280;69838;52.602;13.434;2023-05-15T00:20:59;100747.53;;;6.58;90.20
80509;BME280;69838;52.602;13.434;2023-05-15T00:21:44;100748.38;;;6.60;90.06
80509;BME280;69838;52.602;13.434;2023-05-15T00:22:30;100756.31;;;6.63;89.90
80509;BME280;69838;52.602;13.434;2023-05-15T00:23:15;100750.22;;;6.58;90.05
80509;BME280;69838;52.602;13.434;2023-05-15T00:24:00;100749.91;;;6.67;90.06
80509;BME280;69838;52.602;13.434;2023-05-15T00:24:45;100750.78;;;6.69;89.97
80509;BME280;69838;52.602;13.434;2023-05-15T00:25:31;100747.25;;;6.67;90.06
80509;BME280;69838;52.602;13.434;2023-05-15T00:26:16;100711.31;;;6.45;89.97
80509;BME280;69838;52.602;13.434;2023-05-15T00:27:01;100732.41;;;6.57;90.14
80509;BME280;69838;52.602;13.434;2023-05-15T00:27:46;100744.03;;;6.56;89.97
80509;BME280;69838;52.602;13.434;2023-05-15T00:28:32;100738.66;;;6.56;90.14
80509;BME280;69838;52.602;13.434;2023-05-15T00:29:17;100745.97;;;6.51;90.20
80509;BME280;69838;52.602;13.434;2023-05-15T00:30:02;100745.06;;;6.52;90.04
80509;BME280;69838;52.602;13.434;2023-05-15T00:30:48;100736.16;;;6.52;90.28
80509;BME280;69838;52.602;13.434;2023-05-15T00:31:33;100724.91;;;6.39;89.94
80509;BME280;69838;52.602;13.434;2023-05-15T00:32:18;100737.19;;;6.46;90.26
80509;BME280;69838;52.602;13.434;2023-05-15T00:33:03;100739.78;;;6.49;90.36
80509;BME280;69838;52.602;13.434;2023-05-15T00:33:49;100737.94;;;6.51;90.14
80509;BME280;69838;52.602;13.434;2023-05-15T00:34:34;100741.59;;;6.48;89.80
80509;BME280;69838;52.602;13.434;2023-05-15T00:35:19;100733.81;;;6.41;90.00
80509;BME280;69838;52.602;13.434;2023-05-15T00:36:05;100742.72;;;6.41;89.88
80509;BME280;69838;52.602;13.434;2023-05-15T00:36:50;100739.84;;;6.47;90.06
80509;BME280;69838;52.602;13.434;2023-05-15T00:37:36;100726.69;;;6.40;89.65
80509;BME280;69838;52.602;13.434;2023-05-15T00:38:21;100740.09;;;6.40;89.97
80509;BME280;69838;52.602;13.434;2023-05-15T00:39:06;100737.50;;;6.37;90.03
80509;BME280;69838;52.602;13.434;2023-05-15T00:39:51;100725.41;;;6.23;90.33
80509;BME280;69838;52.602;13.434;2023-05-15T00:40:37;100735.03;;;6.30;90.30
80509;BME280;69838;52.602;13.434;2023-05-15T00:41:24;100722.69;;;6.25;90.20
80509;BME280;69838;52.602;13.434;2023-05-15T00:42:14;100739.34;;;6.35;90.53
80509;BME280;69838;52.602;13.434;2023-05-15T00:42:59;100723.50;;;6.27;90.80
80509;BME280;69838;52.602;13.434;2023-05-15T00:43:45;100722.72;;;6.23;90.65
80509;BME280;69838;52.602;13.434;2023-05-15T00:44:34;100717.53;;;6.17;90.25
80509;BME280;69838;52.602;13.434;2023-05-15T00:45:20;100724.59;;;6.21;90.57
80509;BME280;69838;52.602;13.434;2023-05-15T00:46:06;100728.09;;;6.23;91.06
80509;BME280;69838;52.602;13.434;2023-05-15T00:46:52;100722.81;;;6.20;90.67
80509;BME280;69838;52.602;13.434;2023-05-15T00:47:39;100722.91;;;6.17;90.91
80509;BME280;69838;52.602;13.434;2023-05-15T00:48:27;100724.72;;;6.17;90.87
80509;BME280;69838;52.602;13.434;2023-05-15T00:49:13;100724.63;;;6.20;90.64
80509;BME280;69838;52.602;13.434;2023-05-15T00:49:59;100722.56;;;6.28;90.46
80509;BME280;69838;52.602;13.434;2023-05-15T00:50:44;100717.22;;;6.28;90.56
80509;BME280;69838;52.602;13.434;2023-05-15T00:51:29;100704.25;;;6.14;90.66
80509;BME280;69838;52.602;13.434;2023-05-15T00:52:15;100699.84;;;6.11;90.73
80509;BME280;69838;52.602;13.434;2023-05-15T00:53:00;100716.72;;;6.15;90.48
80509;BME280;69838;52.602;13.434;2023-05-15T00:53:48;100718.47;;;6.16;90.46
80509;BME280;69838;52.602;13.434;2023-05-15T00:54:35;100709.69;;;6.11;90.64
80509;BME280;69838;52.602;13.434;2023-05-15T00:55:20;100703.50;;;6.09;90.80
80509;BME280;69838;52.602;13.434;2023-05-15T00:56:06;100689.63;;;5.96;90.72
80509;BME280;69838;52.602;13.434;2023-05-15T00:56:55;100708.09;;;6.05;91.27
80509;BME280;69838;52.602;13.434;2023-05-15T00:57:42;100710.00;;;6.02;91.13
80509;BME280;69838;52.602;13.434;2023-05-15T00:58:28;100712.72;;;6.00;91.47
80509;BME280;69838;52.602;13.434;2023-05-15T00:59:14;100704.66;;;6.00;91.39
80509;BME280;69838;52.602;13.434;2023-05-15T01:00:01;100705.53;;;6.01;91.65
80509;BME280;69838;52.602;13.434;2023-05-15T01:00:49;100717.09;;;6.03;91.58
80509;BME280;69838;52.602;13.434;2023-05-15T01:01:34;100702.03;;;5.99;91.76
80509;BME280;69838;52.602;13.434;2023-05-15T01:02:19;100707.25;;;6.03;91.94
80509;BME280;69838;52.602;13.434;2023-05-15T01:03:05;100712.63;;;6.03;92.07
80509;BME280;69838;52.602;13.434;2023-05-15T01:03:50;100713.53;;;6.02;91.97
80509;BME280;69838;52.602;13.434;2023-05-15T01:09:41;100705.41;;;6.05;92.43
80509;BME280;69838;52.602;13.434;2023-05-15T01:10:27;100704.44;;;6.08;91.91
80509;BME280;69838;52.602;13.434;2023-05-15T01:11:14;100706.19;;;6.09;91.95
80509;BME280;69838;52.602;13.434;2023-05-15T01:11:59;100683.34;;;5.96;92.19
80509;BME280;69838;52.602;13.434;2023-05-15T01:12:46;100688.63;;;5.99;91.80
80509;BME280;69838;52.602;13.434;2023-05-15T01:13:31;100699.19;;;6.05;91.54
80509;BME280;69838;52.602;13.434;2023-05-15T01:14:17;100696.53;;;6.03;91.71
80509;BME280;69838;52.602;13.434;2023-05-15T01:15:02;100699.19;;;6.05;91.79
80509;BME280;69838;52.602;13.434;2023-05-15T01:15:48;100691.19;;;6.03;91.49
80509;BME280;69838;52.602;13.434;2023-05-15T01:16:34;100693.03;;;6.01;91.35
80509;BME280;69838;52.602;13.434;2023-05-15T01:17:20;100699.28;;;6.02;91.36
80509;BME280;69838;52.602;13.434;2023-05-15T01:18:05;100698.31;;;6.03;91.13
80509;BME280;69838;52.602;13.434;2023-05-15T01:18:51;100699.19;;;6.05;91.33
80509;BME280;69838;52.602;13.434;2023-05-15T01:19:36;100682.47;;;5.95;91.27
80509;BME280;69838;52.602;13.434;2023-05-15T01:20:23;100695.84;;;5.97;91.27
80509;BME280;69838;52.602;13.434;2023-05-15T01:21:48;100690.53;;;5.93;91.22
80509;BME280;69838;52.602;13.434;2023-05-15T01:22:51;100690.53;;;5.93;91.55
80509;BME280;69838;52.602;13.434;2023-05-15T01:25:08;100692.59;;;5.85;91.53
80509;BME280;69838;52.602;13.434;2023-05-15T01:28:13;100664.66;;;5.63;91.24
80509;BME280;69838;52.602;13.434;2023-05-15T01:29:06;100688.38;;;5.77;91.62
80509;BME280;69838;52.602;13.434;2023-05-15T01:30:03;100685.75;;;5.75;91.54
80509;BME280;69838;52.602;13.434;2023-05-15T01:30:54;100678.81;;;5.68;91.73
80509;BME280;69838;52.602;13.434;2023-05-15T01:31:41;100681.44;;;5.69;91.75
80509;BME280;69838;52.602;13.434;2023-05-15T01:32:50;100581.38;;;5.11;91.77
80509;BME280;69838;52.602;13.434;2023-05-15T01:33:39;100657.66;;;5.59;91.62
80509;BME280;69838;52.602;13.434;2023-05-15T01:34:32;100671.88;;;5.61;91.38
80509;BME280;69838;52.602;13.434;2023-05-15T01:35:39;100676.31;;;5.62;91.63
80509;BME280;69838;52.602;13.434;2023-05-15T01:36:33;100681.56;;;5.65;91.54
80509;BME280;69838;52.602;13.434;2023-05-15T01:37:23;100683.19;;;5.70;91.84
80509;BME280;69838;52.602;13.434;2023-05-15T01:38:14;100682.41;;;5.67;91.82
80509;BME280;69838;52.602;13.434;2023-05-15T01:39:02;100678.09;;;5.61;91.85
80509;BME280;69838;52.602;13.434;2023-05-15T01:39:51;100682.50;;;5.64;91.96
80509;BME280;69838;52.602;13.434;2023-05-15T01:40:38;100684.28;;;5.63;92.17
80509;BME280;69838;52.602;13.434;2023-05-15T01:41:31;100670.09;;;5.60;92.30
80509;BME280;69838;52.602;13.434;2023-05-15T01:42:19;100679.91;;;5.61;92.21
80509;BME280;69838;52.602;13.434;2023-05-15T01:43:07;100653.47;;;5.48;92.13
80509;BME280;69838;52.602;13.434;2023-05-15T01:44:06;100668.38;;;5.59;92.07
80509;BME280;69838;52.602;13.434;2023-05-15T01:44:54;100686.97;;;5.63;91.90
80509;BME280;69838;52.602;13.434;2023-05-15T01:45:41;100678.88;;;5.65;92.14
80509;BME280;69838;52.602;13.434;2023-05-15T01:46:28;100679.78;;;5.65;92.02
80509;BME280;69838;52.602;13.434;2023-05-15T01:47:19;100679.84;;;5.64;92.10
80509;BME280;69838;52.602;13.434;2023-05-15T01:48:06;100681.53;;;5.66;91.82
80509;BME280;69838;52.602;13.434;2023-05-15T01:48:53;100656.91;;;5.53;91.68
80509;BME280;69838;52.602;13.434;2023-05-15T01:49:39;100678.81;;;5.68;91.63
80509;BME280;69838;52.602;13.434;2023-05-15T01:50:26;100678.72;;;5.71;91.78
80509;BME280;69838;52.602;13.434;2023-05-15T01:51:12;100682.34;;;5.68;91.75
80509;BME280;69838;52.602;13.434;2023-05-15T01:53:25;100663.97;;;5.56;92.10
80509;BME280;69838;52.602;13.434;2023-05-15T01:54:12;100658.81;;;5.50;92.11
80509;BME280;69838;52.602;13.434;2023-05-15T01:55:00;100676.38;;;5.60;92.11
80509;BME280;69838;52.602;13.434;2023-05-15T01:55:47;100668.44;;;5.55;92.12
80509;BME280;69838;52.602;13.434;2023-05-15T01:56:33;100657.16;;;5.46;92.07
80509;BME280;69838;52.602;13.434;2023-05-15T01:57:20;100675.56;;;5.57;92.14
80509;BME280;69838;52.602;13.434;2023-05-15T01:58:06;100659.66;;;5.50;92.08
80509;BME280;69838;52.602;13.434;2023-05-15T01:58:54;100663.38;;;5.46;91.72
80509;BME280;69838;52.602;13.434;2023-05-15T01:59:41;100666.78;;;5.51;91.79
80509;BME280;69838;52.602;13.434;2023-05-15T02:00:27;100672.19;;;5.50;91.73
80509;BME280;69838;52.602;13.434;2023-05-15T02:01:14;100668.72;;;5.46;91.81
80509;BME280;69838;52.602;13.434;2023-05-15T02:02:03;100639.81;;;5.28;92.31
80509;BME280;69838;52.602;13.434;2023-05-15T02:02:49;100667.94;;;5.43;92.29
80509;BME280;69838;52.602;13.434;2023-05-15T02:03:35;100664.25;;;5.47;92.41
80509;BME280;69838;52.602;13.434;2023-05-15T02:04:21;100646.75;;;5.35;92.49
80509;BME280;69838;52.602;13.434;2023-05-15T02:05:07;100674.00;;;5.49;92.32
80509;BME280;69838;52.602;13.434;2023-05-15T02:05:53;100670.50;;;5.47;92.45
80509;BME280;69838;52.602;13.434;2023-05-15T02:06:40;100651.16;;;5.36;92.36
80509;BME280;69838;52.602;13.434;2023-05-15T02:07:26;100654.59;;;5.41;92.66
80509;BME280;69838;52.602;13.434;2023-05-15T02:08:12;100672.41;;;5.42;92.51
80509;BME280;69838;52.602;13.434;2023-05-15T02:09:01;100656.63;;;5.33;92.44
80509;BME280;69838;52.602;13.434;2023-05-15T02:09:47;100663.63;;;5.37;92.58
80509;BME280;69838;52.602;13.434;2023-05-15T02:10:32;100635.47;;;5.22;92.73
80509;BME280;69838;52.602;13.434;2023-05-15T02:11:17;100665.38;;;5.38;92.55
80509;BME280;69838;52.602;13.434;2023-05-15T02:12:04;100665.44;;;5.37;93.02
80509;BME280;69838;52.602;13.434;2023-05-15T02:12:49;100672.50;;;5.39;92.88
80509;BME280;69838;52.602;13.434;2023-05-15T02:13:35;100651.53;;;5.22;92.87
80509;BME280;69838;52.602;13.434;2023-05-15T02:14:22;100664.66;;;5.33;92.94
80509;BME280;69838;52.602;13.434;2023-05-15T02:15:09;100672.56;;;5.36;92.89
80509;BME280;69838;52.602;13.434;2023-05-15T02:15:55;100669.81;;;5.39;93.15
80509;BME280;69838;52.602;13.434;2023-05-15T02:16:40;100647.84;;;5.28;92.76
80509;BME280;69838;52.602;13.434;2023-05-15T02:17:26;100646.81;;;5.32;92.51
80509;BME280;69838;52.602;13.434;2023-05-15T02:18:12;100646.06;;;5.27;92.23
80509;BME280;69838;52.602;13.434;2023-05-15T02:18:58;100649.56;;;5.29;91.90
80509;BME280;69838;52.602;13.434;2023-05-15T02:19:43;100658.28;;;5.37;92.05
80509;BME280;69838;52.602;13.434;2023-05-15T02:20:28;100662.81;;;5.35;92.21
80509;BME280;69838;52.602;13.434;2023-05-15T02:21:14;100639.13;;;5.20;92.42
80509;BME280;69838;52.602;13.434;2023-05-15T02:21:59;100661.03;;;5.34;92.07
80509;BME280;69838;52.602;13.434;2023-05-15T02:22:45;100657.50;;;5.33;92.38
80509;BME280;69838;52.602;13.434;2023-05-15T02:23:30;100654.78;;;5.35;92.44
80509;BME280;69838;52.602;13.434;2023-05-15T02:24:15;100663.63;;;5.37;91.99
80509;BME280;69838;52.602;13.434;2023-05-15T02:25:00;100663.63;;;5.37;91.92
80509;BME280;69838;52.602;13.434;2023-05-15T02:26:46;100648.94;;;5.21;91.96
80509;BME280;69838;52.602;13.434;2023-05-15T02:27:52;100650.56;;;5.26;91.80
80509;BME280;69838;52.602;13.434;2023-05-15T02:29:41;100644.47;;;5.20;92.05
80509;BME280;69838;52.602;13.434;2023-05-15T02:30:55;100626.84;;;5.12;91.83
80509;BME280;69838;52.602;13.434;2023-05-15T02:32:10;100649.50;;;5.32;91.48
80509;BME280;69838;52.602;13.434;2023-05-15T02:33:03;100655.03;;;5.26;91.62
80509;BME280;69838;52.602;13.434;2023-05-15T02:34:10;100647.88;;;5.26;92.02
80509;BME280;69838;52.602;13.434;2023-05-15T02:35:56;100629.75;;;5.05;92.03
80509;BME280;69838;52.602;13.434;2023-05-15T02:36:46;100630.63;;;5.05;92.70
80509;BME280;69838;52.602;13.434;2023-05-15T02:37:34;100649.09;;;5.14;92.55
80509;BME280;69838;52.602;13.434;2023-05-15T02:38:34;100645.63;;;5.11;92.59
80509;BME280;69838;52.602;13.434;2023-05-15T02:39:21;100649.16;;;5.11;92.47
80509;BME280;69838;52.602;13.434;2023-05-15T02:40:10;100639.47;;;5.07;93.08
80509;BME280;69838;52.602;13.434;2023-05-15T02:40:57;100646.41;;;5.14;93.69
80509;BME280;69838;52.602;13.434;2023-05-15T02:41:45;100648.13;;;5.17;93.77
80509;BME280;69838;52.602;13.434;2023-05-15T02:42:31;100639.22;;;5.16;93.59
80509;BME280;69838;52.602;13.434;2023-05-15T02:43:17;100639.13;;;5.20;92.86
80509;BME280;69838;52.602;13.434;2023-05-15T02:44:04;100639.13;;;5.20;92.88
80509;BME280;69838;52.602;13.434;2023-05-15T02:44:52;100639.22;;;5.16;92.73
80509;BME280;69838;52.602;13.434;2023-05-15T02:45:38;100635.72;;;5.14;93.00
80509;BME280;69838;52.602;13.434;2023-05-15T02:46:25;100639.31;;;5.13;92.62
80509;BME280;69838;52.602;13.434;2023-05-15T02:47:11;100632.28;;;5.09;92.60
80509;BME280;69838;52.602;13.434;2023-05-15T02:47:58;100611.91;;;5.04;92.78
80509;BME280;69838;52.602;13.434;2023-05-15T02:48:44;100632.13;;;5.15;92.60
80509;BME280;69838;52.602;13.434;2023-05-15T02:49:29;100638.31;;;5.18;92.26
80509;BME280;69838;52.602;13.434;2023-05-15T02:50:15;100615.66;;;4.98;92.50
80509;BME280;69838;52.602;13.434;2023-05-15T02:51:00;100638.41;;;5.13;92.44
80509;BME280;69838;52.602;13.434;2023-05-15T02:51:45;100636.75;;;5.09;92.58
80509;BME280;69838;52.602;13.434;2023-05-15T02:52:32;100622.63;;;5.04;92.80
80509;BME280;69838;52.602;13.434;2023-05-15T02:53:17;100633.31;;;5.04;92.50
80509;BME280;69838;52.602;13.434;2023-05-15T02:54:02;100626.28;;;5.01;92.57
80509;BME280;69838;52.602;13.434;2023-05-15T02:54:48;100619.97;;;5.02;92.32
80509;BME280;69838;52.602;13.434;2023-05-15T02:55:33;100628.75;;;5.07;93.12
80509;BME280;69838;52.602;13.434;2023-05-15T02:56:18;100629.56;;;5.11;93.11
80509;BME280;69838;52.602;13.434;2023-05-15T02:57:04;100593.44;;;4.94;92.86
80509;BME280;69838;52.602;13.434;2023-05-15T02:57:49;100624.78;;;5.22;92.62
80509;BME280;69838;52.602;13.434;2023-05-15T02:58:35;100628.34;;;5.23;92.17
80509;BME280;69838;52.602;13.434;2023-05-15T02:59:20;100624.72;;;5.24;91.87
80509;BME280;69838;52.602;13.434;2023-05-15T03:00:06;100606.19;;;5.18;91.74
80509;BME280;69838;52.602;13.434;2023-05-15T03:00:55;100624.72;;;5.24;92.23
80509;BME280;69838;52.602;13.434;2023-05-15T03:01:41;100625.59;;;5.26;92.20
80509;BME280;69838;52.602;13.434;2023-05-15T03:02:26;100614.13;;;5.21;92.21
80509;BME280;69838;52.602;13.434;2023-05-15T03:03:11;100627.41;;;5.24;92.25
80509;BME280;69838;52.602;13.434;2023-05-15T03:03:56;100608.13;;;5.12;92.36
80509;BME280;69838;52.602;13.434;2023-05-15T03:04:42;100618.63;;;5.19;92.53
80509;BME280;69838;52.602;13.434;2023-05-15T03:05:27;100623.06;;;5.20;92.69
80509;BME280;69838;52.602;13.434;2023-05-15T03:06:12;100625.81;;;5.16;92.91
80509;BME280;69838;52.602;13.434;2023-05-15T03:06:57;100613.53;;;5.09;92.56
80509;BME280;69838;52.602;13.434;2023-05-15T03:07:43;100617.81;;;5.16;92.86
80509;BME280;69838;52.602;13.434;2023-05-15T03:08:28;100608.38;;;5.03;92.98
80509;BME280;69838;52.602;13.434;2023-05-15T03:09:13;100622.41;;;5.11;93.08
80509;BME280;69838;52.602;13.434;2023-05-15T03:09:59;100623.34;;;5.10;93.20
80509;BME280;69838;52.602;13.434;2023-05-15T03:10:44;100623.06;;;5.20;93.78
80509;BME280;69838;52.602;13.434;2023-05-15T03:11:29;100630.19;;;5.21;93.47
80509;BME280;69838;52.602;13.434;2023-05-15T03:12:15;100609.97;;;5.10;93.30
80509;BME280;69838;52.602;13.434;2023-05-15T03:13:01;100609.13;;;5.08;93.23
80509;BME280;69838;52.602;13.434;2023-05-15T03:13:46;100606.53;;;5.05;93.36
80509;BME280;69838;52.602;13.434;2023-05-15T03:14:32;100623.16;;;5.16;93.22
80509;BME280;69838;52.602;13.434;2023-05-15T03:15:17;100619.59;;;5.16;93.30
80509;BME280;69838;52.602;13.434;2023-05-15T03:16:03;100575.59;;;4.95;93.08
80509;BME280;69838;52.602;13.434;2023-05-15T03:16:48;100615.09;;;5.18;93.43
80509;BME280;69838;52.602;13.434;2023-05-15T03:17:33;100595.91;;;5.02;92.93
80509;BME280;69838;52.602;13.434;2023-05-15T03:18:19;100607.28;;;5.10;92.99
80509;BME280;69838;52.602;13.434;2023-05-15T03:19:04;100623.06;;;5.20;93.26
80509;BME280;69838;52.602;13.434;2023-05-15T03:19:49;100616.06;;;5.15;93.20
80509;BME280;69838;52.602;13.434;2023-05-15T03:20:35;100613.38;;;5.15;92.85
80509;BME280;69838;52.602;13.434;2023-05-15T03:21:20;100618.78;;;5.14;92.80
80509;BME280;69838;52.602;13.434;2023-05-15T03:22:05;100623.25;;;5.13;92.92
80509;BME280;69838;52.602;13.434;2023-05-15T03:22:51;100614.28;;;5.14;93.02
80509;BME280;69838;52.602;13.434;2023-05-15T03:23:36;100609.28;;;5.02;93.18
80509;BME280;69838;52.602;13.434;2023-05-15T03:24:21;100616.13;;;5.12;93.02
80509;BME280;69838;52.602;13.434;2023-05-15T03:25:09;100612.63;;;5.10;93.26
80509;BME280;69838;52.602;13.434;2023-05-15T03:25:55;100604.66;;;5.09;93.42
80509;BME280;69838;52.602;13.434;2023-05-15T03:26:40;100617.03;;;5.11;93.19
80509;BME280;69838;52.602;13.434;2023-05-15T03:27:27;100606.56;;;5.04;93.08
80509;BME280;69838;52.602;13.434;2023-05-15T03:28:12;100603.06;;;5.02;92.97
80509;BME280;69838;52.602;13.434;2023-05-15T03:28:57;100612.78;;;5.04;93.11
80509;BME280;69838;52.602;13.434;2023-05-15T03:29:42;100608.31;;;5.06;92.79
80509;BME280;69838;52.602;13.434;2023-05-15T03:30:28;100594.22;;;5.00;92.81
80509;BME280;69838;52.602;13.434;2023-05-15T03:31:13;100580.19;;;4.90;92.92
80509;BME280;69838;52.602;13.434;2023-05-15T03:31:58;100616.41;;;5.03;93.17
80509;BME280;69838;52.602;13.434;2023-05-15T03:32:43;100588.06;;;4.96;92.61
80509;BME280;69838;52.602;13.434;2023-05-15T03:33:29;100601.19;;;5.05;92.54
80509;BME280;69838;52.602;13.434;2023-05-15T03:34:15;100597.91;;;4.95;92.70
80509;BME280;69838;52.602;13.434;2023-05-15T03:35:00;100595.16;;;4.97;92.41
80509;BME280;69838;52.602;13.434;2023-05-15T03:35:46;100601.22;;;5.04;92.95
80509;BME280;69838;52.602;13.434;2023-05-15T03:36:31;100588.94;;;4.96;92.81
80509;BME280;69838;52.602;13.434;2023-05-15T03:37:16;100593.41;;;4.96;92.70
80509;BME280;69838;52.602;13.434;2023-05-15T03:38:01;100602.19;;;5.01;92.78
80509;BME280;69838;52.602;13.434;2023-05-15T03:38:47;100601.19;;;5.05;92.75
80509;BME280;69838;52.602;13.434;2023-05-15T03:39:32;100600.34;;;5.03;92.73
80509;BME280;69838;52.602;13.434;2023-05-15T03:40:18;100597.72;;;5.02;92.98
80509;BME280;69838;52.602;13.434;2023-05-15T03:41:03;100597.75;;;5.00;92.91
80509;BME280;69838;52.602;13.434;2023-05-15T03:41:48;100601.28;;;5.01;93.17
80509;BME280;69838;52.602;13.434;2023-05-15T03:42:33;100588.97;;;4.95;93.22
80509;BME280;69838;52.602;13.434;2023-05-15T03:43:18;100595.94;;;5.01;93.15
80509;BME280;69838;52.602;13.434;2023-05-15T03:44:04;100593.41;;;4.96;93.33
80509;BME280;69838;52.602;13.434;2023-05-15T03:44:49;100581.88;;;4.94;93.30
80509;BME280;69838;52.602;13.434;2023-05-15T03:45:35;100605.69;;;5.03;93.44
80509;BME280;69838;52.602;13.434;2023-05-15T03:46:20;100583.50;;;5.00;93.50
80509;BME280;69838;52.602;13.434;2023-05-15T03:47:05;100596.66;;;5.07;93.45
80509;BME280;69838;52.602;13.434;2023-05-15T03:47:51;100587.03;;;5.00;93.49
80509;BME280;69838;52.602;13.434;2023-05-15T03:48:36;100596.63;;;5.09;93.42
80509;BME280;69838;52.602;13.434;2023-05-15T03:49:21;100602.81;;;5.11;93.50
80509;BME280;69838;52.602;13.434;2023-05-15T03:50:06;100578.94;;;5.03;93.31
80509;BME280;69838;52.602;13.434;2023-05-15T03:50:52;100600.03;;;5.14;93.27
80509;BME280;69838;52.602;13.434;2023-05-15T03:51:37;100581.66;;;5.02;93.42
80509;BME280;69838;52.602;13.434;2023-05-15T03:52:22;100594.66;;;5.15;93.39
80509;BME280;69838;52.602;13.434;2023-05-15T03:53:08;100598.16;;;5.18;93.37
80509;BME280;69838;52.602;13.434;2023-05-15T03:53:53;100589.16;;;5.20;93.44
80509;BME280;69838;52.602;13.434;2023-05-15T03:54:38;100594.47;;;5.22;93.50
80509;BME280;69838;52.602;13.434;2023-05-15T03:55:24;100580.25;;;5.20;93.01
80509;BME280;69838;52.602;13.434;2023-05-15T03:56:09;100594.44;;;5.23;93.08
80509;BME280;69838;52.602;13.434;2023-05-15T03:56:54;100583.75;;;5.22;93.13
80509;BME280;69838;52.602;13.434;2023-05-15T03:57:39;100594.19;;;5.31;93.09
80509;BME280;69838;52.602;13.434;2023-05-15T03:58:25;100595.97;;;5.32;93.03
80509;BME280;69838;52.602;13.434;2023-05-15T03:59:11;100579.97;;;5.29;92.94
80509;BME280;69838;52.602;13.434;2023-05-15T03:59:56;100600.41;;;5.33;92.83
80509;BME280;69838;52.602;13.434;2023-05-15T04:00:41;100588.69;;;5.37;92.68
80509;BME280;69838;52.602;13.434;2023-05-15T04:01:26;100583.47;;;5.31;92.86
80509;BME280;69838;52.602;13.434;2023-05-15T04:02:12;100582.53;;;5.33;92.61
80509;BME280;69838;52.602;13.434;2023-05-15T04:02:57;100571.31;;;5.21;92.81
80509;BME280;69838;52.602;13.434;2023-05-15T04:03:42;100609.03;;;5.43;92.75
80509;BME280;69838;52.602;13.434;2023-05-15T04:04:27;100598.34;;;5.41;92.88
80509;BME280;69838;52.602;13.434;2023-05-15T04:05:13;100600.16;;;5.41;92.72
80509;BME280;69838;52.602;13.434;2023-05-15T04:05:58;100594.81;;;5.41;92.80
80509;BME280;69838;52.602;13.434;2023-05-15T04:06:43;100593.09;;;5.38;92.77
80509;BME280;69838;52.602;13.434;2023-05-15T04:07:28;100602.81;;;5.42;92.88
80509;BME280;69838;52.602;13.434;2023-05-15T04:08:14;100600.09;;;5.44;93.16
80509;BME280;69838;52.602;13.434;2023-05-15T04:09:00;100597.44;;;5.42;92.90
80509;BME280;69838;52.602;13.434;2023-05-15T04:09:45;100600.97;;;5.44;92.93
80509;BME280;69838;52.602;13.434;2023-05-15T04:10:30;100600.00;;;5.45;93.17
80509;BME280;69838;52.602;13.434;2023-05-15T04:11:16;100592.94;;;5.44;92.90
80509;BME280;69838;52.602;13.434;2023-05-15T04:12:02;100592.06;;;5.44;92.86
80509;BME280;69838;52.602;13.434;2023-05-15T04:12:47;100591.97;;;5.45;93.04
80509;BME280;69838;52.602;13.434;2023-05-15T04:13:33;100600.75;;;5.50;93.13
80509;BME280;69838;52.602;13.434;2023-05-15T04:14:18;100600.69;;;5.53;93.09
80509;BME280;69838;52.602;13.434;2023-05-15T04:15:58;100601.47;;;5.57;92.71
80509;BME280;69838;52.602;13.434;2023-05-15T04:16:44;100590.72;;;5.59;92.73
80509;BME280;69838;52.602;13.434;2023-05-15T04:17:29;100597.88;;;5.58;92.79
80509;BME280;69838;52.602;13.434;2023-05-15T04:18:15;100581.09;;;5.51;92.72
80509;BME280;69838;52.602;13.434;2023-05-15T04:19:00;100595.13;;;5.60;92.70